createdAt,value
2019-01-17T00:04:30.544Z,19.77
2019-01-17T00:07:17.953Z,17.05
2019-01-17T00:10:05.402Z,18.65
2019-01-17T00:13:12.465Z,17.48
2019-01-17T00:15:59.934Z,19.23
2019-01-17T00:21:36.629Z,22.05
2019-01-17T00:24:43.663Z,22.73
2019-01-17T00:27:50.424Z,19.95
2019-01-17T00:30:37.845Z,19.62
2019-01-17T00:33:25.287Z,20.57
2019-01-17T00:36:12.703Z,19.92
2019-01-17T00:41:39.404Z,21.07
2019-01-17T00:44:27.084Z,22.45
2019-01-17T00:47:14.512Z,19.05
2019-01-17T00:52:40.952Z,18.05
2019-01-17T00:55:49.539Z,19.20
2019-01-17T00:58:36.957Z,16.87
2019-01-17T01:01:24.406Z,19.40
2019-01-17T01:04:11.833Z,24.80
2019-01-17T01:07:21.467Z,18.37
2019-01-17T01:15:58.109Z,19.77
2019-01-17T01:18:45.530Z,16.83
2019-01-17T01:21:32.939Z,17.50
2019-01-17T01:24:20.364Z,16.67
2019-01-17T01:27:08.015Z,14.85
2019-01-17T01:29:55.438Z,13.95
2019-01-17T01:32:42.853Z,17.75
2019-01-17T01:35:30.293Z,12.58
2019-01-17T01:38:17.694Z,15.37
2019-01-17T01:43:44.255Z,10.25
2019-01-17T01:46:31.698Z,13.85
2019-01-17T01:49:19.093Z,9.93
2019-01-17T01:54:26.922Z,11.18
2019-01-17T01:56:55.262Z,11.68
2019-01-17T01:59:23.530Z,11.63
2019-01-17T02:01:51.823Z,12.65
2019-01-17T02:04:20.124Z,11.68
2019-01-17T02:06:48.409Z,12.40
2019-01-17T02:09:36.172Z,12.20
2019-01-17T02:12:44.526Z,12.37
2019-01-17T02:15:52.859Z,14.87
2019-01-17T02:18:21.159Z,11.33
2019-01-17T02:20:49.440Z,13.70
2019-01-17T02:23:57.863Z,13.18
2019-01-17T02:26:26.145Z,13.45
2019-01-17T02:28:54.481Z,15.83
2019-01-17T02:31:22.780Z,14.43
2019-01-17T02:34:10.455Z,13.38
2019-01-17T02:36:38.756Z,14.80
2019-01-17T02:39:47.119Z,14.47
2019-01-17T02:42:15.429Z,16.97
2019-01-17T02:44:43.709Z,16.63
2019-01-17T02:47:12.024Z,16.50
2019-01-17T02:49:40.327Z,17.75
2019-01-17T02:52:08.643Z,17.75
2019-01-17T02:54:56.687Z,17.62
2019-01-17T02:57:24.994Z,18.05
2019-01-17T02:59:53.302Z,16.57
2019-01-17T03:02:21.626Z,17.37
2019-01-17T03:05:09.317Z,13.73
2019-01-17T03:07:57.102Z,15.85
2019-01-17T03:10:25.392Z,14.50
2019-01-17T03:12:53.681Z,14.40
2019-01-17T03:15:22.003Z,17.42
2019-01-17T03:17:50.306Z,15.60
2019-01-17T03:20:18.880Z,17.90
2019-01-17T03:22:47.171Z,15.72
2019-01-17T03:28:16.464Z,17.75
2019-01-17T03:30:44.795Z,16.65
2019-01-17T03:33:13.088Z,18.60
2019-01-17T03:35:41.386Z,18.50
2019-01-17T03:38:49.719Z,18.10
2019-01-17T03:41:18.048Z,16.95
2019-01-17T03:43:46.678Z,15.60
2019-01-17T03:46:14.972Z,16.03
2019-01-17T03:48:43.307Z,17.67
2019-01-17T03:51:11.601Z,18.82
2019-01-17T03:53:39.924Z,18.73
2019-01-17T03:56:08.212Z,17.25
2019-01-17T03:58:36.529Z,19.55
2019-01-17T04:01:24.199Z,18.43
2019-01-17T04:04:11.972Z,20.45
2019-01-17T04:06:40.260Z,18.73
2019-01-17T04:09:08.588Z,15.35
2019-01-17T04:11:36.891Z,19.77
2019-01-17T04:14:45.255Z,17.75
2019-01-17T04:17:13.532Z,19.12
2019-01-17T04:19:41.858Z,17.70
2019-01-17T04:22:10.132Z,16.90
2019-01-17T04:24:57.810Z,17.90
2019-01-17T04:27:26.104Z,15.33
2019-01-17T04:29:54.394Z,15.70
2019-01-17T04:32:23.060Z,16.12
2019-01-17T04:34:51.343Z,14.78
2019-01-17T04:37:19.652Z,16.50
2019-01-17T04:39:47.945Z,15.50
2019-01-17T04:42:16.262Z,16.40
2019-01-17T04:44:44.854Z,16.60
2019-01-17T04:47:13.173Z,18.52
2019-01-17T04:49:41.468Z,21.97
2019-01-17T04:52:49.886Z,17.02
2019-01-17T04:55:18.502Z,18.57
2019-01-17T04:57:46.821Z,17.92
2019-01-17T05:00:55.160Z,18.82
2019-01-17T05:03:23.488Z,16.95
2019-01-17T05:06:10.908Z,19.60
2019-01-17T05:08:39.234Z,21.07
2019-01-17T05:11:07.523Z,18.77
2019-01-17T05:13:35.815Z,19.60
2019-01-17T05:18:39.525Z,20.85
2019-01-17T05:21:07.843Z,19.60
2019-01-17T05:23:36.409Z,20.48
2019-01-17T05:26:24.160Z,23.45
2019-01-17T05:28:52.471Z,22.87
2019-01-17T05:31:20.771Z,23.38
2019-01-17T05:33:49.376Z,22.40
2019-01-17T05:36:37.059Z,19.57
2019-01-17T05:39:45.380Z,22.37
2019-01-17T05:42:14.009Z,25.05
2019-01-17T05:44:42.591Z,22.90
2019-01-17T05:47:10.913Z,22.00
2019-01-17T05:49:39.201Z,23.17
2019-01-17T05:52:07.534Z,25.08
2019-01-17T05:57:25.915Z,22.55
2019-01-17T05:59:54.203Z,24.05
2019-01-17T06:02:22.500Z,21.73
2019-01-17T06:04:50.822Z,20.57
2019-01-17T06:07:19.117Z,22.73
2019-01-17T06:10:06.809Z,21.68
2019-01-17T06:12:35.125Z,21.60
2019-01-17T06:15:23.556Z,23.52
2019-01-17T06:17:52.137Z,62.15
2019-01-17T06:20:20.449Z,40.25
2019-01-17T06:22:49.098Z,23.92
2019-01-17T06:25:17.452Z,21.85
2019-01-17T06:27:45.751Z,19.57
2019-01-17T06:30:34.968Z,19.82
2019-01-17T06:33:22.609Z,22.60
2019-01-17T06:36:10.293Z,22.67
2019-01-17T06:38:38.613Z,27.25
2019-01-17T06:41:07.242Z,24.33
2019-01-17T06:43:54.682Z,20.75
2019-01-17T06:46:22.965Z,22.32
2019-01-17T06:48:51.270Z,22.03
2019-01-17T06:51:19.553Z,24.47
2019-01-17T06:54:07.245Z,24.85
2019-01-17T06:56:35.532Z,25.48
2019-01-17T06:59:23.206Z,25.33
2019-01-17T07:02:10.883Z,27.62
2019-01-17T07:04:39.200Z,23.98
2019-01-17T07:07:19.888Z,25.35
2019-01-17T07:12:22.345Z,28.62
2019-01-17T07:14:50.651Z,27.80
2019-01-17T07:17:18.955Z,28.60
2019-01-17T07:20:06.637Z,28.20
2019-01-17T07:22:54.044Z,28.30
2019-01-17T07:25:41.856Z,28.85
2019-01-17T07:28:10.146Z,28.52
2019-01-17T07:30:57.571Z,27.02
2019-01-17T07:33:25.868Z,28.38
2019-01-17T07:35:54.178Z,31.12
2019-01-17T07:38:22.507Z,28.13
2019-01-17T07:40:50.807Z,29.85
2019-01-17T07:43:19.115Z,26.10
2019-01-17T07:46:06.772Z,27.45
2019-01-17T07:48:54.731Z,30.45
2019-01-17T07:51:23.281Z,27.75
2019-01-17T07:53:51.591Z,24.90
2019-01-17T07:56:39.222Z,25.43
2019-01-17T07:59:26.852Z,30.10
2019-01-17T08:01:55.153Z,27.02
2019-01-17T08:05:03.517Z,24.32
2019-01-17T08:07:31.816Z,25.10
2019-01-17T08:10:19.763Z,24.82
2019-01-17T08:13:28.353Z,26.52
2019-01-17T08:15:57.999Z,26.25
2019-01-17T08:18:26.943Z,25.43
2019-01-17T08:20:55.268Z,27.02
2019-01-17T08:23:23.564Z,23.85
2019-01-17T08:25:54.353Z,25.60
2019-01-17T08:28:21.897Z,23.67
2019-01-17T08:30:50.180Z,24.57
2019-01-17T08:33:37.620Z,22.83
2019-01-17T08:39:12.442Z,22.40
2019-01-17T08:41:40.748Z,23.77
2019-01-17T08:44:28.427Z,19.15
2019-01-17T08:46:56.729Z,19.25
2019-01-17T08:49:25.023Z,21.75
2019-01-17T08:51:53.337Z,18.85
2019-01-17T08:54:21.633Z,18.62
2019-01-17T08:56:49.957Z,18.47
2019-01-17T08:59:18.527Z,21.12
2019-01-17T09:01:47.113Z,18.55
2019-01-17T09:07:22.096Z,17.77
2019-01-17T09:09:50.383Z,16.77
2019-01-17T09:12:18.678Z,18.30
2019-01-17T09:17:20.659Z,15.23
2019-01-17T09:19:48.975Z,14.35
2019-01-17T09:22:17.256Z,11.40
2019-01-17T09:25:04.958Z,14.03
2019-01-17T09:27:33.240Z,14.18
2019-01-17T09:30:01.535Z,13.90
2019-01-17T09:32:29.829Z,11.88
2019-01-17T09:34:58.386Z,16.70
2019-01-17T09:43:12.634Z,14.43
2019-01-17T09:45:40.992Z,15.53
2019-01-17T09:48:09.291Z,12.35
2019-01-17T09:50:37.589Z,11.28
2019-01-17T09:53:25.102Z,12.53
2019-01-17T09:55:53.719Z,14.07
2019-01-17T10:01:34.411Z,11.25
2019-01-17T10:04:02.695Z,14.68
2019-01-17T10:06:30.992Z,11.30
2019-01-17T10:08:59.288Z,12.40
2019-01-17T10:11:27.591Z,11.97
2019-01-17T10:13:55.870Z,10.45
2019-01-17T10:17:04.224Z,13.20
2019-01-17T10:22:41.602Z,11.45
2019-01-17T10:25:49.936Z,13.88
2019-01-17T10:28:56.950Z,14.25
2019-01-17T10:32:03.957Z,14.03
2019-01-17T10:35:10.995Z,14.55
2019-01-17T10:38:18.242Z,11.97
2019-01-17T10:41:26.590Z,14.07
2019-01-17T10:44:33.597Z,14.50
2019-01-17T10:47:40.891Z,12.93
2019-01-17T10:50:49.225Z,13.08
2019-01-17T10:53:56.491Z,11.48
2019-01-17T10:57:03.490Z,11.22
2019-01-17T11:00:11.836Z,7.72
2019-01-17T11:03:18.832Z,9.28
2019-01-17T11:06:27.181Z,6.65
2019-01-17T11:09:35.516Z,8.20
2019-01-17T11:12:43.943Z,7.45
2019-01-17T11:15:52.332Z,4.25
2019-01-17T11:18:59.381Z,7.20
2019-01-17T11:22:06.373Z,5.78
2019-01-17T11:25:13.399Z,6.53
2019-01-17T11:28:21.735Z,3.58
2019-01-17T11:31:28.999Z,4.17
2019-01-17T11:34:36.275Z,5.62
2019-01-17T11:37:44.666Z,5.08
2019-01-17T11:40:51.670Z,3.70
2019-01-17T11:43:58.692Z,3.80
2019-01-17T11:47:07.006Z,5.40
2019-01-17T11:50:15.414Z,4.37
2019-01-17T11:53:24.040Z,24.25
2019-01-17T11:56:31.045Z,4.28
2019-01-17T11:59:39.451Z,15.87
2019-01-17T12:02:46.456Z,6.37
2019-01-17T12:07:48.682Z,4.80
2019-01-17T12:10:29.528Z,6.10
2019-01-17T12:15:46.781Z,4.65
2019-01-17T12:18:15.061Z,6.83
2019-01-17T12:23:36.819Z,5.50
2019-01-17T12:26:05.391Z,8.03
2019-01-17T12:28:33.684Z,6.20
2019-01-17T12:31:01.975Z,8.58
2019-01-17T12:33:30.649Z,6.42
2019-01-17T12:35:58.925Z,8.90
2019-01-17T12:38:27.221Z,9.83
2019-01-17T12:40:55.512Z,13.35
2019-01-17T12:43:23.825Z,12.05
2019-01-17T12:46:11.479Z,8.70
2019-01-17T12:48:39.792Z,8.03
2019-01-17T12:51:08.078Z,8.50
2019-01-17T12:53:36.366Z,7.35
2019-01-17T12:56:44.710Z,8.55
2019-01-17T12:59:12.990Z,9.08
2019-01-17T13:01:41.301Z,11.17
2019-01-17T13:04:29.042Z,10.15
2019-01-17T13:06:57.351Z,10.20
2019-01-17T13:09:25.631Z,8.50
2019-01-17T13:11:53.929Z,11.17
2019-01-17T13:14:41.624Z,11.20
2019-01-17T13:17:10.162Z,8.58
2019-01-17T13:19:38.476Z,10.45
2019-01-17T13:22:46.803Z,8.78
2019-01-17T13:25:55.148Z,7.87
2019-01-17T13:28:23.422Z,9.18
2019-01-17T13:30:51.732Z,11.77
2019-01-17T13:36:47.384Z,8.25
2019-01-17T13:39:15.680Z,7.05
2019-01-17T13:42:03.364Z,8.30
2019-01-17T13:47:38.360Z,5.97
2019-01-17T13:50:46.921Z,6.35
2019-01-17T13:53:15.231Z,7.70
2019-01-17T13:56:02.633Z,4.37
2019-01-17T13:58:30.978Z,4.30
2019-01-17T14:00:59.272Z,4.20
2019-01-17T14:06:14.886Z,5.75
2019-01-17T14:08:43.171Z,5.20
2019-01-17T14:11:30.595Z,5.17
2019-01-17T14:16:49.710Z,5.33
2019-01-17T14:19:17.999Z,7.40
2019-01-17T14:21:46.296Z,7.00
2019-01-17T14:24:33.980Z,7.50
2019-01-17T14:30:50.379Z,6.83
2019-01-17T14:33:18.956Z,6.05
2019-01-17T14:35:47.262Z,5.80
2019-01-17T14:38:35.192Z,5.47
2019-01-17T14:41:22.626Z,6.35
2019-01-17T14:49:12.719Z,6.22
2019-01-17T14:51:41.010Z,5.70
2019-01-17T14:54:09.326Z,6.62
2019-01-17T14:56:37.609Z,4.97
2019-01-17T15:01:40.266Z,7.85
2019-01-17T15:04:08.590Z,7.40
2019-01-17T15:06:37.202Z,7.03
2019-01-17T15:09:45.817Z,7.15
2019-01-17T15:12:14.102Z,7.07
2019-01-17T15:14:42.692Z,5.53
2019-01-17T15:17:11.008Z,6.30
2019-01-17T15:19:39.300Z,11.40
2019-01-17T15:22:07.604Z,11.43
2019-01-17T15:24:35.891Z,12.50
2019-01-17T15:27:27.299Z,8.00
2019-01-17T15:29:53.956Z,11.00
2019-01-17T15:32:22.234Z,9.23
2019-01-17T15:37:24.838Z,9.23
2019-01-17T15:40:31.858Z,12.33
2019-01-17T15:43:00.154Z,12.68
2019-01-17T15:45:28.464Z,9.08
2019-01-17T15:47:57.150Z,12.63
2019-01-17T15:51:05.518Z,12.73
2019-01-17T15:53:33.798Z,11.43
2019-01-17T15:56:02.073Z,7.25
2019-01-17T15:58:30.382Z,8.40
2019-01-17T16:00:58.973Z,6.45
2019-01-17T16:03:27.262Z,9.10
2019-01-17T16:06:14.929Z,7.17
2019-01-17T16:08:43.242Z,8.13
2019-01-17T16:11:11.847Z,7.50
2019-01-17T16:13:59.526Z,8.73
2019-01-17T16:16:27.811Z,10.72
2019-01-17T16:18:56.087Z,10.08
2019-01-17T16:21:24.707Z,12.78
2019-01-17T16:23:52.995Z,8.28
2019-01-17T16:26:21.334Z,8.38
2019-01-17T16:28:49.587Z,8.45
2019-01-17T16:31:18.117Z,7.22
2019-01-17T16:33:46.719Z,6.30
2019-01-17T16:36:15.307Z,8.38
2019-01-17T16:39:03.243Z,6.83
2019-01-17T16:41:31.829Z,10.03
2019-01-17T16:44:00.403Z,7.87
2019-01-17T16:46:35.976Z,5.72
2019-01-17T16:49:04.527Z,15.55
2019-01-17T16:51:32.834Z,8.10
2019-01-17T16:54:01.136Z,7.60
2019-01-17T16:56:29.449Z,10.58
2019-01-17T16:58:57.744Z,11.20
2019-01-17T17:01:26.064Z,10.88
2019-01-17T17:03:54.339Z,13.08
2019-01-17T17:06:22.627Z,15.55
2019-01-17T17:08:50.929Z,11.90
2019-01-17T17:11:19.211Z,14.05
2019-01-17T17:13:47.509Z,12.25
2019-01-17T17:16:16.070Z,13.30
2019-01-17T17:19:03.742Z,6.90
2019-01-17T17:21:32.387Z,10.10
2019-01-17T17:24:00.686Z,7.90
2019-01-17T17:26:48.116Z,10.95
2019-01-17T17:29:16.395Z,8.20
2019-01-17T17:31:44.684Z,8.88
2019-01-17T17:34:12.983Z,13.65
2019-01-17T17:37:00.657Z,12.55
2019-01-17T17:39:48.612Z,13.13
2019-01-17T17:42:36.026Z,5.12
2019-01-17T17:45:44.361Z,10.30
2019-01-17T17:48:12.655Z,16.12
2019-01-17T17:53:14.787Z,11.08
2019-01-17T17:55:43.371Z,10.65
2019-01-17T17:58:11.668Z,14.33
2019-01-17T18:03:28.919Z,14.53
2019-01-17T18:05:57.220Z,12.43
2019-01-17T18:08:44.892Z,11.90
2019-01-17T18:11:13.216Z,10.80
2019-01-17T18:13:41.864Z,15.40
2019-01-17T18:16:10.148Z,11.60
2019-01-17T18:18:38.715Z,14.80
2019-01-17T18:21:07.009Z,12.15
2019-01-17T18:23:35.333Z,13.70
2019-01-17T18:26:22.814Z,13.50
2019-01-17T18:28:51.124Z,11.38
2019-01-17T18:31:19.405Z,9.38
2019-01-17T18:34:06.843Z,9.60
2019-01-17T18:36:35.137Z,9.30
2019-01-17T18:41:58.296Z,11.38
2019-01-17T18:44:26.600Z,8.53
2019-01-17T18:46:54.900Z,7.50
2019-01-17T18:49:42.551Z,8.40
2019-01-17T18:52:30.674Z,6.08
2019-01-17T18:54:58.957Z,6.95
2019-01-17T19:00:01.550Z,7.30
2019-01-17T19:07:58.581Z,8.43
2019-01-17T19:13:33.638Z,8.78
2019-01-17T19:16:01.941Z,10.55
2019-01-17T19:18:30.237Z,8.53
2019-01-17T19:20:58.543Z,10.20
2019-01-17T19:23:26.829Z,8.58
2019-01-17T19:26:14.520Z,7.40
2019-01-17T19:28:42.810Z,6.85
2019-01-17T19:31:30.764Z,8.55
2019-01-17T19:34:18.180Z,7.00
2019-01-17T19:36:46.492Z,8.50
2019-01-17T19:39:14.791Z,8.73
2019-01-17T19:41:43.080Z,6.28
2019-01-17T19:47:04.408Z,10.93
2019-01-17T19:49:32.708Z,9.33
2019-01-17T19:52:00.991Z,8.43
2019-01-17T19:54:29.295Z,10.85
2019-01-17T19:56:57.596Z,9.70
2019-01-17T19:59:25.909Z,10.10
2019-01-17T20:01:54.227Z,15.35
2019-01-17T20:04:41.998Z,11.45
2019-01-17T20:07:11.885Z,12.68
2019-01-17T20:09:59.297Z,11.65
2019-01-17T20:12:27.600Z,11.43
2019-01-17T20:15:15.020Z,11.15
2019-01-17T20:17:43.326Z,12.53
2019-01-17T20:20:51.657Z,11.18
2019-01-17T20:23:39.604Z,14.10
2019-01-17T20:26:27.333Z,13.48
2019-01-17T20:31:29.227Z,11.07
2019-01-17T20:33:57.511Z,13.85
2019-01-17T20:36:25.839Z,10.45
2019-01-17T20:38:54.125Z,12.78
2019-01-17T20:41:22.800Z,13.93
2019-01-17T20:47:15.302Z,16.85
2019-01-17T20:49:43.583Z,14.13
2019-01-17T20:52:11.885Z,13.93
2019-01-17T20:54:59.559Z,13.30
2019-01-17T21:00:56.937Z,21.17
2019-01-17T21:03:25.241Z,20.80
2019-01-17T21:06:12.919Z,16.77
2019-01-17T21:08:41.217Z,18.27
2019-01-17T21:11:29.227Z,17.25
2019-01-17T21:13:57.519Z,16.75
2019-01-17T21:16:25.837Z,16.30
2019-01-17T21:19:34.408Z,17.95
2019-01-17T21:27:30.552Z,15.88
2019-01-17T21:29:58.855Z,15.30
2019-01-17T21:35:39.408Z,15.10
2019-01-17T21:38:08.028Z,17.42
2019-01-17T21:40:55.957Z,14.87
2019-01-17T21:43:24.273Z,16.50
2019-01-17T21:45:52.560Z,15.40
2019-01-17T21:48:20.870Z,14.05
2019-01-17T21:50:49.492Z,14.53
2019-01-17T21:53:36.967Z,11.78
2019-01-17T21:56:05.285Z,12.30
2019-01-17T21:58:33.872Z,14.37
2019-01-17T22:01:21.308Z,11.20
2019-01-17T22:03:49.606Z,13.93
2019-01-17T22:09:45.528Z,10.50
2019-01-17T22:15:01.150Z,16.10
2019-01-17T22:17:29.720Z,14.75
2019-01-17T22:19:57.986Z,11.60
2019-01-17T22:22:26.297Z,13.30
2019-01-17T22:24:54.936Z,13.70
2019-01-17T22:27:42.625Z,12.85
2019-01-17T22:30:30.323Z,13.35
2019-01-17T22:32:58.630Z,10.95
2019-01-17T22:35:26.929Z,13.45
2019-01-17T22:38:35.353Z,13.78
2019-01-17T22:44:31.173Z,15.35
2019-01-17T22:47:18.847Z,13.32
2019-01-17T22:49:47.151Z,10.80
2019-01-17T22:52:15.448Z,12.28
2019-01-17T22:55:03.128Z,11.97
2019-01-17T22:57:31.416Z,12.35
2019-01-17T23:00:00.000Z,16.20
2019-01-17T23:02:47.632Z,11.33
2019-01-17T23:05:15.940Z,14.05
2019-01-17T23:07:44.574Z,12.30
2019-01-17T23:10:52.908Z,11.12
2019-01-17T23:13:21.227Z,9.75
2019-01-17T23:16:08.853Z,13.15
2019-01-17T23:18:56.555Z,11.63
2019-01-17T23:21:24.856Z,12.83
2019-01-17T23:23:53.154Z,11.63
2019-01-17T23:26:21.475Z,12.93
2019-01-17T23:28:49.788Z,12.85
2019-01-17T23:31:18.093Z,16.20
2019-01-17T23:33:58.227Z,9.30
2019-01-17T23:36:35.545Z,11.47
2019-01-17T23:39:23.175Z,8.75
2019-01-17T23:42:10.849Z,12.28
2019-01-17T23:44:39.139Z,11.65
2019-01-17T23:47:07.441Z,14.50
2019-01-17T23:49:35.753Z,13.93
2019-01-17T23:52:23.427Z,10.85
2019-01-17T23:55:10.868Z,8.50
2019-01-17T23:57:39.156Z,13.30
